Tenes, Algeria
Current Conditions -  °F | °C
As of 3:00 PM on Thursday 29 Jan 2015 (Local Time) from DAOI Reporting Station
Scattered Clouds Scattered Clouds  
Wind Chill: 61°   Ceiling: Unl
Heat Index: 61°   Visibility: 6mi
Dew Point: 45°   Wind: 18mph
Humidity: 55%   Direction: 220°SW
Pressure: 29.97"   Gusts: NA
Location:  36.51°N, 1.31°E
Report Text: DAOI 291400Z 22016KT 9999 FEW026 SCT030 16/07 Q1015
Loading
Personal Weather Stations






























Interactive Weather Map New forecast layout! Learn more

10-Day Weather Forecast

Advertisements
Track Severe Weather on mobile